createdAt,value
2019-05-22T00:02:41.423Z,34.33
2019-05-22T00:05:32.774Z,36.30
2019-05-22T00:08:23.847Z,34.90
2019-05-22T00:11:08.748Z,35.07
2019-05-22T00:13:59.657Z,36.10
2019-05-22T00:16:49.658Z,35.40
2019-05-22T00:19:38.695Z,34.47
2019-05-22T00:22:33.460Z,34.20
2019-05-22T00:25:26.570Z,35.97
2019-05-22T00:28:16.926Z,36.30
2019-05-22T00:31:01.453Z,34.80
2019-05-22T00:33:50.655Z,34.90
2019-05-22T00:36:40.870Z,33.90
2019-05-22T00:39:30.635Z,34.57
2019-05-22T00:42:20.846Z,37.50
2019-05-22T00:45:12.779Z,36.40
2019-05-22T00:48:03.227Z,36.03
2019-05-22T00:51:16.215Z,35.20
2019-05-22T00:54:38.403Z,35.10
2019-05-22T00:57:32.932Z,34.50
2019-05-22T01:00:29.003Z,33.60
2019-05-22T01:03:21.239Z,35.37
2019-05-22T01:06:12.881Z,33.93
2019-05-22T01:09:07.841Z,31.40
2019-05-22T01:11:56.800Z,32.50
2019-05-22T01:14:49.944Z,30.37
2019-05-22T01:17:41.080Z,33.00
2019-05-22T01:20:32.206Z,32.70
2019-05-22T01:23:23.584Z,34.03
2019-05-22T01:26:19.181Z,32.70
2019-05-22T01:29:09.031Z,33.63
2019-05-22T01:32:00.336Z,29.57
2019-05-22T01:34:50.968Z,32.53
2019-05-22T01:37:42.519Z,32.90
2019-05-22T01:40:47.006Z,29.43
2019-05-22T01:43:37.347Z,30.47
2019-05-22T01:46:28.751Z,31.20
2019-05-22T01:49:18.465Z,30.80
2019-05-22T01:52:09.324Z,29.40
2019-05-22T01:54:59.807Z,28.13
2019-05-22T01:57:49.892Z,28.40
2019-05-22T02:00:41.440Z,28.60
2019-05-22T02:03:32.508Z,28.10
2019-05-22T02:06:23.359Z,28.10
2019-05-22T02:09:26.782Z,27.30
2019-05-22T02:12:23.488Z,29.63
2019-05-22T02:15:12.832Z,29.63
2019-05-22T02:18:05.029Z,29.00
2019-05-22T02:20:53.947Z,28.03
2019-05-22T02:23:25.045Z,28.03
2019-05-22T02:26:16.429Z,30.07
2019-05-22T02:29:06.404Z,28.77
2019-05-22T02:31:58.029Z,29.13
2019-05-22T02:34:47.895Z,28.17
2019-05-22T02:37:38.097Z,27.83
2019-05-22T02:40:31.425Z,26.40
2019-05-22T02:43:12.145Z,27.00
2019-05-22T02:46:00.670Z,28.40
2019-05-22T02:48:51.140Z,27.33
2019-05-22T02:51:41.293Z,26.20
2019-05-22T02:54:31.558Z,28.33
2019-05-22T02:57:21.994Z,27.80
2019-05-22T03:00:12.647Z,28.10
2019-05-22T03:03:02.877Z,27.40
2019-05-22T03:05:54.689Z,27.83
2019-05-22T03:09:20.560Z,29.33
2019-05-22T03:12:16.164Z,28.73
2019-05-22T03:15:09.152Z,28.03
2019-05-22T03:18:04.980Z,29.60
2019-05-22T03:20:53.728Z,27.80
2019-05-22T03:23:44.966Z,28.40
2019-05-22T03:26:47.985Z,30.00
2019-05-22T03:29:51.360Z,30.10
2019-05-22T03:32:44.621Z,30.80
2019-05-22T03:35:42.396Z,31.47
2019-05-22T03:38:32.652Z,29.57
2019-05-22T03:41:22.549Z,30.40
2019-05-22T03:44:13.909Z,28.77
2019-05-22T03:47:04.495Z,28.77
2019-05-22T03:49:55.480Z,29.10
2019-05-22T03:52:28.943Z,28.03
2019-05-22T03:55:18.129Z,27.20
2019-05-22T03:58:07.518Z,26.83
2019-05-22T04:00:58.103Z,27.37
2019-05-22T04:03:48.363Z,26.67
2019-05-22T04:06:20.701Z,26.27
2019-05-22T04:09:22.787Z,25.10
2019-05-22T04:12:13.221Z,24.33
2019-05-22T04:15:04.200Z,25.17
2019-05-22T04:17:53.233Z,26.33
2019-05-22T04:20:42.569Z,24.50
2019-05-22T04:23:32.763Z,25.60
2019-05-22T04:26:23.628Z,25.03
2019-05-22T04:29:13.037Z,24.93
2019-05-22T04:32:23.346Z,25.87
2019-05-22T04:35:17.788Z,26.23
2019-05-22T04:38:07.288Z,25.20
2019-05-22T04:40:53.198Z,24.30
2019-05-22T04:43:26.515Z,22.40
2019-05-22T04:45:59.195Z,22.00
2019-05-22T04:48:31.407Z,24.53
2019-05-22T04:51:41.218Z,22.53
2019-05-22T04:54:11.421Z,24.30
2019-05-22T04:57:02.145Z,23.67
2019-05-22T04:59:51.361Z,25.10
2019-05-22T05:02:40.799Z,24.20
2019-05-22T05:05:11.714Z,26.60
2019-05-22T05:07:44.023Z,25.23
2019-05-22T05:10:33.787Z,25.70
2019-05-22T05:13:24.188Z,25.67
2019-05-22T05:16:13.365Z,25.93
2019-05-22T05:19:03.140Z,24.80
2019-05-22T05:21:53.232Z,25.50
2019-05-22T05:24:42.374Z,24.67
2019-05-22T05:27:32.709Z,25.67
2019-05-22T05:30:23.666Z,24.40
2019-05-22T05:33:14.013Z,24.00
2019-05-22T05:36:04.445Z,23.93
2019-05-22T05:38:54.894Z,24.40
2019-05-22T05:41:44.843Z,24.30
2019-05-22T05:44:33.900Z,24.20
2019-05-22T05:47:24.005Z,23.57
2019-05-22T05:50:14.739Z,23.70
2019-05-22T05:53:06.540Z,22.60
2019-05-22T05:56:10.619Z,21.90
2019-05-22T05:59:00.319Z,21.00
2019-05-22T06:01:53.220Z,21.17
2019-05-22T06:04:42.488Z,21.10
2019-05-22T06:07:31.391Z,21.10
2019-05-22T06:11:05.932Z,20.40
2019-05-22T06:13:57.618Z,20.87
2019-05-22T06:17:50.650Z,20.40
2019-05-22T06:20:24.047Z,21.13
2019-05-22T06:23:52.445Z,20.20
2019-05-22T06:26:45.473Z,20.97
2019-05-22T06:29:17.700Z,20.57
2019-05-22T06:31:58.992Z,20.90
2019-05-22T06:34:29.398Z,19.63
2019-05-22T06:37:04.151Z,18.73
2019-05-22T06:39:35.359Z,18.40
2019-05-22T06:42:06.142Z,19.67
2019-05-22T06:44:42.105Z,18.10
2019-05-22T06:47:23.354Z,19.17
2019-05-22T06:50:00.803Z,19.53
2019-05-22T06:52:30.929Z,18.10
2019-05-22T06:55:03.378Z,16.60
2019-05-22T06:57:35.025Z,18.17
2019-05-22T07:00:21.620Z,17.03
2019-05-22T07:02:52.110Z,16.20
2019-05-22T07:05:22.947Z,15.20
2019-05-22T07:07:53.302Z,14.13
2019-05-22T07:10:24.833Z,15.20
2019-05-22T07:12:55.089Z,15.40
2019-05-22T07:15:36.328Z,15.90
2019-05-22T07:18:07.298Z,15.43
2019-05-22T07:20:39.978Z,15.27
2019-05-22T07:23:15.041Z,16.63
2019-05-22T07:25:46.431Z,17.13
2019-05-22T07:28:19.389Z,17.83
2019-05-22T07:30:50.687Z,16.77
2019-05-22T07:33:23.779Z,17.67
2019-05-22T07:36:09.390Z,17.70
2019-05-22T07:38:27.370Z,18.57
2019-05-22T07:40:58.470Z,18.70
2019-05-22T07:43:28.640Z,15.80
2019-05-22T07:45:58.906Z,16.97
2019-05-22T07:48:30.949Z,17.10
2019-05-22T07:51:04.077Z,15.73
2019-05-22T07:53:34.420Z,14.87
2019-05-22T07:56:08.588Z,15.23
2019-05-22T07:58:38.977Z,14.50
2019-05-22T08:01:11.375Z,16.57
2019-05-22T08:03:44.655Z,16.20
2019-05-22T08:06:15.469Z,18.47
2019-05-22T08:08:46.882Z,18.47
2019-05-22T08:11:19.025Z,17.40
2019-05-22T08:13:50.689Z,17.30
2019-05-22T08:16:21.622Z,16.90
2019-05-22T08:18:52.432Z,17.87
2019-05-22T08:21:23.877Z,18.40
2019-05-22T08:23:55.898Z,18.90
2019-05-22T08:26:27.038Z,18.57
2019-05-22T08:28:58.468Z,19.93
2019-05-22T08:31:29.263Z,18.97
2019-05-22T08:34:00.559Z,18.73
2019-05-22T08:36:50.822Z,19.37
2019-05-22T08:39:40.474Z,19.50
2019-05-22T08:42:29.842Z,18.50
2019-05-22T08:45:20.522Z,19.17
2019-05-22T08:48:10.193Z,19.83
2019-05-22T08:51:00.286Z,19.60
2019-05-22T08:53:49.632Z,20.17
2019-05-22T08:56:41.202Z,18.80
2019-05-22T08:59:30.580Z,19.80
2019-05-22T09:02:20.311Z,18.50
2019-05-22T09:05:10.025Z,17.80
2019-05-22T09:07:59.419Z,19.47
2019-05-22T09:10:49.369Z,19.87
2019-05-22T09:13:38.960Z,18.87
2019-05-22T09:16:28.031Z,19.37
2019-05-22T09:19:17.454Z,19.47
2019-05-22T09:22:08.513Z,19.07
2019-05-22T09:24:58.447Z,18.50
2019-05-22T09:27:47.695Z,17.70
2019-05-22T09:30:36.732Z,18.40
2019-05-22T09:33:25.993Z,19.30
2019-05-22T09:36:16.178Z,17.50
2019-05-22T09:39:07.559Z,19.40
2019-05-22T09:41:56.698Z,18.47
2019-05-22T09:44:46.282Z,18.50
2019-05-22T09:47:36.369Z,17.60
2019-05-22T09:50:26.160Z,16.87
2019-05-22T09:53:16.511Z,16.10
2019-05-22T09:56:05.898Z,16.13
2019-05-22T09:58:55.242Z,14.63
2019-05-22T10:01:45.256Z,15.63
2019-05-22T10:04:34.683Z,15.70
2019-05-22T10:07:24.590Z,14.83
2019-05-22T10:10:13.891Z,13.70
2019-05-22T10:13:03.156Z,14.03
2019-05-22T10:15:52.692Z,14.40
2019-05-22T10:18:42.855Z,14.20
2019-05-22T10:21:32.397Z,14.73
2019-05-22T10:24:22.169Z,14.70
2019-05-22T10:27:13.317Z,15.57
2019-05-22T10:30:03.325Z,15.67
2019-05-22T10:32:52.235Z,16.60
2019-05-22T10:35:41.018Z,16.03
2019-05-22T10:38:30.551Z,14.43
2019-05-22T10:41:21.128Z,15.10
2019-05-22T10:44:11.020Z,15.40
2019-05-22T10:46:59.993Z,15.30
2019-05-22T10:49:49.730Z,16.87
2019-05-22T10:52:39.453Z,15.60
2019-05-22T10:55:29.044Z,16.37
2019-05-22T10:58:17.988Z,17.53
2019-05-22T11:01:09.056Z,16.83
2019-05-22T11:03:59.449Z,16.33
2019-05-22T11:06:48.831Z,17.60
2019-05-22T11:09:39.759Z,17.43
2019-05-22T11:12:29.121Z,18.50
2019-05-22T11:15:18.996Z,17.70
2019-05-22T11:18:08.414Z,17.80
2019-05-22T11:20:57.430Z,17.70
2019-05-22T11:23:51.856Z,17.37
2019-05-22T11:26:37.361Z,17.70
2019-05-22T11:29:26.469Z,17.87
2019-05-22T11:32:15.726Z,18.60
2019-05-22T11:35:05.475Z,16.87
2019-05-22T11:37:54.802Z,18.30
2019-05-22T11:40:43.841Z,19.73
2019-05-22T11:43:33.420Z,19.57
2019-05-22T11:46:22.805Z,17.33
2019-05-22T11:49:12.749Z,16.83
2019-05-22T11:52:02.568Z,17.50
2019-05-22T11:54:51.981Z,16.53
2019-05-22T11:57:42.839Z,16.50
2019-05-22T12:00:31.752Z,17.60
2019-05-22T12:03:22.846Z,17.83
2019-05-22T12:06:12.537Z,19.30
2019-05-22T12:09:01.379Z,17.40
2019-05-22T12:11:50.913Z,17.53
2019-05-22T12:14:40.060Z,19.77
2019-05-22T12:17:38.102Z,19.10
2019-05-22T12:20:21.635Z,19.07
2019-05-22T12:23:11.576Z,17.60
2019-05-22T12:26:01.195Z,18.17
2019-05-22T12:28:51.260Z,17.70
2019-05-22T12:31:40.332Z,18.10
2019-05-22T12:34:29.497Z,18.20
2019-05-22T12:37:19.062Z,19.30
2019-05-22T12:40:10.557Z,18.30
2019-05-22T12:43:00.512Z,16.87
2019-05-22T12:45:49.835Z,16.70
2019-05-22T12:48:40.880Z,17.00
2019-05-22T12:51:32.838Z,17.03
2019-05-22T12:54:21.930Z,18.13
2019-05-22T12:57:11.967Z,16.27
2019-05-22T13:00:03.014Z,17.63
2019-05-22T13:02:55.130Z,17.93
2019-05-22T13:05:45.261Z,16.53
2019-05-22T13:08:35.701Z,17.10
2019-05-22T13:11:26.095Z,15.03
2019-05-22T13:14:15.582Z,16.10
2019-05-22T13:17:05.616Z,16.77
2019-05-22T13:19:56.870Z,16.40
2019-05-22T13:22:48.311Z,15.73
2019-05-22T13:25:39.570Z,14.00
2019-05-22T13:28:30.381Z,15.47
2019-05-22T13:31:19.981Z,14.97
2019-05-22T13:34:11.313Z,15.60
2019-05-22T13:37:00.706Z,14.40
2019-05-22T13:39:51.054Z,14.50
2019-05-22T13:42:40.362Z,14.20
2019-05-22T13:45:30.659Z,16.20
2019-05-22T13:48:20.200Z,14.80
2019-05-22T13:51:09.355Z,15.03
2019-05-22T13:53:59.545Z,13.03
2019-05-22T13:56:49.333Z,14.20
2019-05-22T13:59:38.559Z,14.60
2019-05-22T14:02:28.803Z,12.70
2019-05-22T14:05:18.769Z,13.00
2019-05-22T14:08:09.471Z,14.50
2019-05-22T14:10:59.834Z,13.70
2019-05-22T14:13:50.127Z,12.40
2019-05-22T14:16:48.536Z,12.10
2019-05-22T16:43:47.211Z,11.87
2019-05-22T16:46:24.435Z,12.63
2019-05-22T16:49:16.624Z,10.83
2019-05-22T16:52:08.948Z,11.80
2019-05-22T16:54:59.775Z,12.40
2019-05-22T16:57:48.981Z,11.10
2019-05-22T17:00:37.991Z,11.93
2019-05-22T17:03:30.857Z,12.33
2019-05-22T17:06:22.165Z,11.30
2019-05-22T17:09:13.764Z,13.43
2019-05-22T17:12:07.371Z,12.83
2019-05-22T17:14:57.753Z,14.20
2019-05-22T17:17:48.076Z,14.37
2019-05-22T17:20:48.577Z,14.07
2019-05-22T17:23:42.846Z,15.43
2019-05-22T17:26:32.889Z,12.40
2019-05-22T17:29:21.909Z,16.20
2019-05-22T17:32:13.998Z,14.03
2019-05-22T17:35:09.237Z,13.60
2019-05-22T17:38:08.067Z,16.03
2019-05-22T17:41:01.460Z,15.80
2019-05-22T17:43:51.354Z,17.13
2019-05-22T17:46:44.604Z,15.73
2019-05-22T17:49:35.342Z,16.50
2019-05-22T17:52:26.115Z,16.63
2019-05-22T17:55:16.287Z,16.33
2019-05-22T17:58:06.117Z,16.97
2019-05-22T18:00:58.341Z,14.80
2019-05-22T18:03:48.027Z,15.00
2019-05-22T18:06:37.355Z,14.50
2019-05-22T18:09:26.958Z,12.60
2019-05-22T18:12:17.983Z,14.00
2019-05-22T18:15:10.113Z,15.30
2019-05-22T18:17:59.954Z,15.30
2019-05-22T18:20:50.204Z,14.50
2019-05-22T18:23:40.111Z,14.13
2019-05-22T18:26:30.148Z,13.43
2019-05-22T18:29:19.311Z,13.10
2019-05-22T18:32:08.725Z,14.60
2019-05-22T18:34:39.053Z,13.10
2019-05-22T18:37:09.892Z,14.87
2019-05-22T18:39:40.546Z,12.77
2019-05-22T18:42:11.440Z,12.27
2019-05-22T18:44:41.730Z,13.60
2019-05-22T18:47:13.259Z,12.03
2019-05-22T18:49:43.701Z,13.00
2019-05-22T18:52:14.029Z,11.47
2019-05-22T18:54:44.322Z,12.57
2019-05-22T18:57:14.997Z,13.77
2019-05-22T18:59:45.552Z,13.37
2019-05-22T19:02:17.091Z,12.73
2019-05-22T19:04:47.316Z,11.57
2019-05-22T19:07:17.850Z,11.90
2019-05-22T19:09:48.107Z,16.23
2019-05-22T19:12:19.417Z,14.70
2019-05-22T19:14:49.855Z,12.73
2019-05-22T19:17:20.296Z,13.17
2019-05-22T19:19:51.356Z,13.00
2019-05-22T19:22:22.118Z,14.30
2019-05-22T19:24:52.934Z,13.60
2019-05-22T19:27:23.327Z,13.80
2019-05-22T19:29:53.625Z,11.80
2019-05-22T19:32:24.041Z,12.13
2019-05-22T19:34:54.549Z,13.03
2019-05-22T19:37:25.406Z,14.70
2019-05-22T19:39:56.033Z,13.07
2019-05-22T19:42:26.021Z,13.17
2019-05-22T19:44:57.672Z,12.53
2019-05-22T19:47:31.295Z,13.43
2019-05-22T19:50:04.422Z,18.80
2019-05-22T19:53:15.791Z,15.53
2019-05-22T19:55:52.941Z,14.50
2019-05-22T19:58:42.184Z,15.60
2019-05-22T20:01:32.130Z,14.27
2019-05-22T20:04:20.981Z,15.93
2019-05-22T20:07:11.087Z,13.27
2019-05-22T20:10:02.429Z,15.10
2019-05-22T20:12:52.094Z,14.43
2019-05-22T20:15:42.303Z,14.83
2019-05-22T20:18:31.127Z,13.63
2019-05-22T20:21:20.737Z,13.67
2019-05-22T20:24:10.281Z,13.57
2019-05-22T20:27:00.025Z,14.10
2019-05-22T20:29:49.964Z,13.63
2019-05-22T20:32:39.784Z,14.70
2019-05-22T20:35:29.245Z,15.03
2019-05-22T20:38:19.093Z,14.33
2019-05-22T20:41:08.751Z,14.30
2019-05-22T20:44:01.251Z,14.97
2019-05-22T20:46:50.870Z,14.47
2019-05-22T20:49:41.991Z,15.13
2019-05-22T20:52:32.804Z,15.97
2019-05-22T20:55:22.663Z,17.63
2019-05-22T20:58:13.491Z,17.43
2019-05-22T21:01:04.997Z,17.37
2019-05-22T21:03:54.378Z,17.73
2019-05-22T21:06:51.415Z,17.20
2019-05-22T21:09:42.002Z,18.57
2019-05-22T21:12:36.077Z,18.60
2019-05-22T21:15:27.350Z,19.10
2019-05-22T21:18:18.755Z,18.00
2019-05-22T21:21:09.389Z,18.00
2019-05-22T21:24:10.544Z,17.63
2019-05-22T21:26:49.846Z,19.13
2019-05-22T21:29:39.281Z,20.30
2019-05-22T21:32:29.134Z,20.07
2019-05-22T21:35:19.441Z,21.43
2019-05-22T21:38:11.972Z,20.80
2019-05-22T21:41:02.110Z,22.30
2019-05-22T21:43:52.602Z,19.70
2019-05-22T21:46:42.895Z,21.80
2019-05-22T21:49:32.163Z,22.47
2019-05-22T21:52:21.876Z,21.77
2019-05-22T21:55:13.362Z,22.07
2019-05-22T21:58:02.837Z,22.80
2019-05-22T22:01:14.795Z,23.50
2019-05-22T22:04:26.109Z,23.93
2019-05-22T22:07:15.349Z,23.70
2019-05-22T22:10:06.804Z,24.67
2019-05-22T22:12:58.088Z,24.10
2019-05-22T22:15:49.185Z,25.50
2019-05-22T22:18:40.019Z,22.30
2019-05-22T22:21:30.039Z,26.50
2019-05-22T22:24:19.965Z,23.40
2019-05-22T22:27:10.353Z,26.00
2019-05-22T22:30:02.410Z,27.83
2019-05-22T22:33:57.828Z,27.03
2019-05-22T22:36:39.513Z,28.70
2019-05-22T22:39:31.598Z,29.67
2019-05-22T22:42:22.306Z,29.30
2019-05-22T22:45:20.197Z,29.37
2019-05-22T22:48:09.848Z,27.93
2019-05-22T22:51:00.396Z,27.80
2019-05-22T22:53:50.053Z,30.53
2019-05-22T22:56:39.080Z,30.20
2019-05-22T22:59:28.362Z,28.90
2019-05-22T23:02:20.006Z,28.57
2019-05-22T23:05:11.966Z,29.30
2019-05-22T23:08:02.244Z,29.83
2019-05-22T23:10:51.953Z,30.73
2019-05-22T23:13:41.757Z,32.70
2019-05-22T23:16:31.066Z,31.60
2019-05-22T23:19:47.263Z,31.80
2019-05-22T23:22:34.599Z,31.50
2019-05-22T23:25:23.827Z,32.80
2019-05-22T23:28:13.094Z,32.13
2019-05-22T23:31:03.830Z,31.20
2019-05-22T23:33:53.345Z,32.90
2019-05-22T23:36:42.875Z,33.80
2019-05-22T23:39:33.654Z,34.20
2019-05-22T23:42:28.537Z,31.83
2019-05-22T23:45:20.374Z,32.67
2019-05-22T23:48:14.716Z,32.67
2019-05-22T23:51:04.906Z,35.57
2019-05-22T23:53:55.978Z,36.07
2019-05-22T23:56:45.664Z,34.87
2019-05-22T23:59:36.632Z,36.30
